createdAt,value
2023-12-24T00:04:24.278Z,3.33
2023-12-24T00:09:27.439Z,3.28
2023-12-24T00:14:31.583Z,3.17
2023-12-24T00:19:35.934Z,3.55
2023-12-24T00:24:38.986Z,3.47
2023-12-24T00:29:41.903Z,3.70
2023-12-24T00:34:46.276Z,3.65
2023-12-24T00:39:49.938Z,3.65
2023-12-24T00:44:54.563Z,3.70
2023-12-24T00:49:58.305Z,3.60
2023-12-24T00:55:02.114Z,3.58
2023-12-24T01:00:07.564Z,3.15
2023-12-24T01:05:10.913Z,3.53
2023-12-24T01:10:16.996Z,3.72
2023-12-24T01:15:22.286Z,3.40
2023-12-24T01:20:25.337Z,3.92
2023-12-24T01:25:28.737Z,3.22
2023-12-24T01:30:31.353Z,3.92
2023-12-24T01:35:34.309Z,3.53
2023-12-24T01:40:37.294Z,3.72
2023-12-24T01:45:58.314Z,4.53
2023-12-24T01:51:01.884Z,4.45
2023-12-24T01:56:06.919Z,4.93
2023-12-24T02:01:11.063Z,4.18
2023-12-24T02:06:16.007Z,4.15
2023-12-24T02:11:22.367Z,4.78
2023-12-24T02:16:35.345Z,4.32
2023-12-24T02:21:38.562Z,4.35
2023-12-24T02:26:55.137Z,4.38
2023-12-24T02:32:07.821Z,4.32
2023-12-24T02:42:14.267Z,4.25
2023-12-24T02:47:17.026Z,3.80
2023-12-24T02:52:20.398Z,3.75
2023-12-24T02:57:23.840Z,3.42
2023-12-24T03:02:27.120Z,3.50
2023-12-24T03:07:30.486Z,3.97
2023-12-24T03:12:34.156Z,4.47
2023-12-24T03:17:37.129Z,4.85
2023-12-24T03:22:40.262Z,4.82
2023-12-24T03:27:43.112Z,5.82
2023-12-24T03:32:46.734Z,6.05
2023-12-24T03:37:50.586Z,5.60
2023-12-24T03:42:54.546Z,6.03
2023-12-24T03:47:57.765Z,6.60
2023-12-24T03:53:01.384Z,7.82
2023-12-24T03:58:05.361Z,7.72
2023-12-24T04:03:11.972Z,7.28
2023-12-24T04:08:16.942Z,8.98
2023-12-24T04:13:20.747Z,7.65
2023-12-24T04:18:24.115Z,7.70
2023-12-24T04:23:27.353Z,7.50
2023-12-24T04:28:31.127Z,7.95
2023-12-24T04:33:34.264Z,8.32
2023-12-24T04:38:37.571Z,10.40
2023-12-24T04:43:42.708Z,9.98
2023-12-24T04:48:46.240Z,9.77
2023-12-24T04:53:50.653Z,10.70
2023-12-24T04:58:54.849Z,11.32
2023-12-24T05:04:01.550Z,12.57
2023-12-24T05:09:07.005Z,12.55
2023-12-24T05:14:10.567Z,11.40
2023-12-24T05:19:13.357Z,9.18
2023-12-24T05:24:16.628Z,10.45
2023-12-24T05:29:19.990Z,9.60
2023-12-24T05:34:23.186Z,14.10
2023-12-24T05:39:27.071Z,11.23
2023-12-24T05:44:30.798Z,8.65
2023-12-24T05:49:35.044Z,8.85
2023-12-24T05:54:39.499Z,10.75
2023-12-24T05:59:43.104Z,9.27
2023-12-24T06:04:46.150Z,8.85
2023-12-24T06:09:49.108Z,7.55
2023-12-24T06:14:51.994Z,6.97
2023-12-24T06:19:55.752Z,7.03
2023-12-24T06:24:59.357Z,5.55
2023-12-24T06:30:04.396Z,5.25
2023-12-24T06:35:07.817Z,3.65
2023-12-24T06:40:11.939Z,3.30
2023-12-24T06:45:17.925Z,3.67
2023-12-24T06:50:21.670Z,3.55
2023-12-24T06:55:24.861Z,2.90
2023-12-24T07:00:28.520Z,2.22
2023-12-24T07:05:35.904Z,1.73
2023-12-24T07:10:40.159Z,1.02
2023-12-24T07:15:44.048Z,0.80
2023-12-24T07:20:47.244Z,0.68
2023-12-24T07:25:49.867Z,0.50
2023-12-24T07:30:52.884Z,0.70
2023-12-24T07:35:55.747Z,0.70
2023-12-24T07:40:59.051Z,0.43
2023-12-24T07:46:02.042Z,0.80
2023-12-24T07:51:05.193Z,0.40
2023-12-24T07:56:07.917Z,0.55
2023-12-24T08:01:11.373Z,0.40
2023-12-24T08:06:27.885Z,0.57
2023-12-24T08:11:31.937Z,0.70
2023-12-24T08:16:36.657Z,0.70
2023-12-24T08:21:39.457Z,0.80
2023-12-24T08:26:42.765Z,0.90
2023-12-24T08:31:45.727Z,1.08
2023-12-24T08:36:48.489Z,1.23
2023-12-24T08:41:51.901Z,1.15
2023-12-24T08:46:54.815Z,1.50
2023-12-24T08:51:58.460Z,1.35
2023-12-24T08:57:01.328Z,1.00
2023-12-24T09:02:04.288Z,1.40
2023-12-24T09:07:07.278Z,2.25
2023-12-24T09:12:10.726Z,1.77
2023-12-24T09:17:13.733Z,2.25
2023-12-24T09:22:16.378Z,1.73
2023-12-24T09:27:19.603Z,2.20
2023-12-24T09:32:22.495Z,3.20
2023-12-24T09:37:26.641Z,2.80
2023-12-24T09:42:29.518Z,2.55
2023-12-24T09:47:32.379Z,2.42
2023-12-24T09:52:36.139Z,2.30
2023-12-24T09:57:40.820Z,2.40
2023-12-24T10:02:46.610Z,4.38
2023-12-24T10:07:49.604Z,2.67
2023-12-24T10:13:09.531Z,3.50
2023-12-24T10:18:21.527Z,3.67
2023-12-24T10:23:24.747Z,3.47
2023-12-24T10:28:27.491Z,3.13
2023-12-24T10:33:31.396Z,3.17
2023-12-24T10:38:36.065Z,3.17
2023-12-24T10:43:38.962Z,3.22
2023-12-24T10:48:41.754Z,3.22
2023-12-24T10:53:45.599Z,3.28
2023-12-24T10:59:01.187Z,3.13
2023-12-24T11:04:04.292Z,3.58
2023-12-24T11:09:15.771Z,3.17
2023-12-24T11:14:47.201Z,3.67
2023-12-24T11:19:50.873Z,4.47
2023-12-24T11:25:19.439Z,4.28
2023-12-24T11:30:22.511Z,4.05
2023-12-24T11:35:53.652Z,4.07
2023-12-24T11:41:08.753Z,3.67
2023-12-24T11:46:12.023Z,4.57
2023-12-24T11:51:15.201Z,4.45
2023-12-24T11:56:20.250Z,4.30
2023-12-24T12:01:41.426Z,5.20
2023-12-24T12:06:44.556Z,5.10
2023-12-24T12:11:49.149Z,4.78
2023-12-24T12:16:51.921Z,5.25
2023-12-24T12:21:54.775Z,4.75
2023-12-24T12:26:57.641Z,4.65
2023-12-24T12:32:03.237Z,4.35
2023-12-24T12:37:06.511Z,3.88
2023-12-24T12:42:10.085Z,3.35
2023-12-24T12:47:16.371Z,3.47
2023-12-24T12:52:19.720Z,5.20
2023-12-24T12:57:33.702Z,3.72
2023-12-24T13:02:41.627Z,3.80
2023-12-24T13:07:45.100Z,3.40
2023-12-24T13:12:47.958Z,4.00
2023-12-24T13:17:51.139Z,3.55
2023-12-24T13:22:56.358Z,3.58
2023-12-24T13:27:58.893Z,4.28
2023-12-24T13:33:02.087Z,3.50
2023-12-24T13:38:25.684Z,3.47
2023-12-24T13:43:29.950Z,3.83
2023-12-24T13:48:34.519Z,5.40
2023-12-24T13:53:38.762Z,4.55
2023-12-24T13:58:43.340Z,5.30
2023-12-24T14:03:46.995Z,4.45
2023-12-24T14:08:49.935Z,4.20
2023-12-24T14:13:53.250Z,3.85
2023-12-24T14:18:56.614Z,4.07
2023-12-24T14:24:00.305Z,4.10
2023-12-24T14:29:02.990Z,4.13
2023-12-24T14:34:06.158Z,5.10
2023-12-24T14:39:09.459Z,4.80
2023-12-24T14:44:12.404Z,4.65
2023-12-24T14:49:15.805Z,5.43
2023-12-24T14:54:18.927Z,4.55
2023-12-24T14:59:21.703Z,5.13
2023-12-24T15:04:26.610Z,6.13
2023-12-24T15:09:29.327Z,5.70
2023-12-24T15:14:32.448Z,4.72
2023-12-24T15:19:35.637Z,5.57
2023-12-24T15:24:39.587Z,4.43
2023-12-24T15:29:43.107Z,4.47
2023-12-24T15:34:46.135Z,5.28
2023-12-24T15:39:49.068Z,5.80
2023-12-24T15:44:52.485Z,6.43
2023-12-24T15:49:56.380Z,5.30
2023-12-24T15:55:01.889Z,6.18
2023-12-24T16:00:09.990Z,5.90
2023-12-24T16:05:14.811Z,6.13
2023-12-24T16:10:18.012Z,8.30
2023-12-24T16:15:21.082Z,9.07
2023-12-24T16:20:24.048Z,9.13
2023-12-24T16:25:27.990Z,8.32
2023-12-24T16:30:30.664Z,7.60
2023-12-24T16:35:33.983Z,7.38
2023-12-24T16:40:37.483Z,7.50
2023-12-24T16:45:44.033Z,8.35
2023-12-24T16:50:49.079Z,7.00
2023-12-24T16:55:53.566Z,6.47
2023-12-24T17:00:56.273Z,6.68
2023-12-24T17:05:59.511Z,6.45
2023-12-24T17:11:02.473Z,6.05
2023-12-24T17:16:05.901Z,6.57
2023-12-24T17:21:09.493Z,6.05
2023-12-24T17:26:12.206Z,6.05
2023-12-24T17:31:15.087Z,6.63
2023-12-24T17:36:20.407Z,6.38
2023-12-24T17:41:23.675Z,6.63
2023-12-24T17:46:33.598Z,5.93
2023-12-24T17:51:41.130Z,5.63
2023-12-24T17:56:46.422Z,6.57
2023-12-24T18:01:50.170Z,6.43
2023-12-24T18:06:53.575Z,5.53
2023-12-24T18:11:59.774Z,5.82
2023-12-24T18:17:04.168Z,5.65
2023-12-24T18:22:07.442Z,5.70
2023-12-24T18:27:10.132Z,5.95
2023-12-24T18:32:14.421Z,5.82
2023-12-24T18:37:18.210Z,4.78
2023-12-24T18:42:21.317Z,6.07
2023-12-24T18:47:25.183Z,5.30
2023-12-24T18:52:30.167Z,5.75
2023-12-24T18:57:34.358Z,5.30
2023-12-24T19:02:37.923Z,5.97
2023-12-24T19:07:40.729Z,5.38
2023-12-24T19:12:43.623Z,4.75
2023-12-24T19:17:47.425Z,4.68
2023-12-24T19:22:51.330Z,6.20
2023-12-24T19:27:54.067Z,5.53
2023-12-24T19:32:57.703Z,7.13
2023-12-24T19:38:00.742Z,7.00
2023-12-24T19:43:03.917Z,7.55
2023-12-24T19:48:11.163Z,6.22
2023-12-24T19:53:14.436Z,6.80
2023-12-24T19:58:18.488Z,6.38
2023-12-24T20:03:21.315Z,5.85
2023-12-24T20:08:24.429Z,5.80
2023-12-24T20:13:28.262Z,6.10
2023-12-24T20:18:31.437Z,6.07
2023-12-24T20:23:34.364Z,6.32
2023-12-24T20:28:37.727Z,6.03
2023-12-24T20:33:44.064Z,5.47
2023-12-24T20:38:49.390Z,5.97
2023-12-24T20:43:52.370Z,5.50
2023-12-24T20:48:55.024Z,6.40
2023-12-24T20:53:57.928Z,6.43
2023-12-24T20:59:03.282Z,7.90
2023-12-24T21:04:07.346Z,8.18
2023-12-24T21:09:13.128Z,8.15
2023-12-24T21:14:18.409Z,8.75
2023-12-24T21:19:22.314Z,9.55
2023-12-24T21:24:25.503Z,9.75
2023-12-24T21:29:28.164Z,8.65
2023-12-24T21:34:32.081Z,8.75
2023-12-24T21:39:35.734Z,9.93
2023-12-24T21:44:42.537Z,9.93
2023-12-24T21:49:47.871Z,10.18
2023-12-24T21:54:50.423Z,10.32
2023-12-24T21:59:54.066Z,9.35
2023-12-24T22:04:57.179Z,9.77
2023-12-24T22:09:59.907Z,9.57
2023-12-24T22:15:02.649Z,9.80
2023-12-24T22:20:07.355Z,9.15
2023-12-24T22:25:10.473Z,9.50
2023-12-24T22:30:13.367Z,10.25
2023-12-24T22:35:16.865Z,9.68
2023-12-24T22:40:19.799Z,9.18
2023-12-24T22:45:23.331Z,8.52
2023-12-24T22:50:25.939Z,8.00
2023-12-24T22:55:29.242Z,8.50
2023-12-24T23:00:34.098Z,8.32
2023-12-24T23:05:38.213Z,8.02
2023-12-24T23:10:42.303Z,8.13
2023-12-24T23:15:44.948Z,7.47
2023-12-24T23:20:47.657Z,8.18
2023-12-24T23:25:50.529Z,8.05
2023-12-24T23:30:53.768Z,8.23
2023-12-24T23:36:05.673Z,7.40
2023-12-24T23:41:16.006Z,6.30
2023-12-24T23:46:18.974Z,5.75
2023-12-24T23:51:21.677Z,7.38
2023-12-24T23:56:24.982Z,7.57
